createdAt,value
2023-06-08T00:00:27.091Z,-11320.88
2023-06-08T00:03:34.460Z,-11328.47
2023-06-08T00:06:45.642Z,-11324.81
2023-06-08T00:09:52.755Z,-11318.47
2023-06-08T00:12:59.240Z,-11315.53
2023-06-08T00:16:05.701Z,-11316.38
2023-06-08T00:19:12.155Z,-11319.47
2023-06-08T00:22:19.781Z,-11304.41
2023-06-08T00:25:25.848Z,-11305.94
2023-06-08T00:28:31.965Z,-11301.59
2023-06-08T00:31:39.139Z,-11291.03
2023-06-08T00:34:45.813Z,-11280.03
2023-06-08T00:37:54.243Z,-11275.25
2023-06-08T00:41:00.693Z,-11283.56
2023-06-08T00:44:08.177Z,-11285.25
2023-06-08T00:47:18.086Z,-11290.75
2023-06-08T00:50:25.890Z,-11283.41
2023-06-08T00:53:34.654Z,-11305.94
2023-06-08T00:56:42.207Z,-11311.72
2023-06-08T00:59:50.973Z,-11310.44
2023-06-08T01:02:57.723Z,-11304.81
2023-06-08T01:06:09.552Z,-11302.28
2023-06-08T01:09:27.661Z,-11303.69
2023-06-08T01:12:43.855Z,-11301.88
2023-06-08T01:15:54.348Z,-11304.69
2023-06-08T01:19:09.869Z,-11301.44
2023-06-08T01:22:23.630Z,-11286.78
2023-06-08T01:25:34.429Z,-11274.41
2023-06-08T01:28:41.263Z,-11287.91
2023-06-08T01:31:47.586Z,-11297.22
2023-06-08T01:34:54.151Z,-11292.16
2023-06-08T01:38:11.091Z,-11287.50
2023-06-08T01:41:23.055Z,-11287.63
2023-06-08T01:44:31.709Z,-11291.16
2023-06-08T01:47:42.234Z,-11290.47
2023-06-08T01:50:50.632Z,-11299.19
2023-06-08T01:54:02.635Z,-11298.91
2023-06-08T01:57:10.732Z,-11296.09
2023-06-08T02:00:19.250Z,-11290.03
2023-06-08T02:03:26.118Z,-11270.19
2023-06-08T02:06:32.330Z,-11255.56
2023-06-08T02:09:38.512Z,-11257.09
2023-06-08T02:12:46.170Z,-11271.47
2023-06-08T02:15:54.671Z,-11262.88
2023-06-08T02:19:02.588Z,-11267.09
2023-06-08T02:22:09.119Z,-11255.00
2023-06-08T02:25:15.364Z,-11247.69
2023-06-08T02:28:23.157Z,-11227.97
2023-06-08T02:31:29.454Z,-11226.44
2023-06-08T02:34:39.163Z,-11227.69
2023-06-08T02:37:45.808Z,-11232.47
2023-06-08T02:40:52.500Z,-11235.59
2023-06-08T02:44:00.184Z,-11238.66
2023-06-08T02:47:07.093Z,-11237.28
2023-06-08T02:50:13.286Z,-11234.75
2023-06-08T02:53:19.370Z,-11230.22
2023-06-08T02:56:26.739Z,-11234.75
2023-06-08T02:59:34.759Z,-11238.94
2023-06-08T03:02:41.241Z,-11241.47
2023-06-08T03:05:47.610Z,-11256.13
2023-06-08T03:08:55.576Z,-11251.63
2023-06-08T03:12:02.404Z,-11251.63
2023-06-08T03:15:11.903Z,-11264.84
2023-06-08T03:18:18.780Z,-11255.41
2023-06-08T03:21:29.976Z,-11244.03
2023-06-08T03:24:36.427Z,-11241.47
2023-06-08T03:27:42.536Z,-11248.53
2023-06-08T03:30:50.139Z,-11255.97
2023-06-08T03:33:56.422Z,-11275.25
2023-06-08T03:37:02.878Z,-11282.00
2023-06-08T03:40:10.526Z,-11284.97
2023-06-08T03:43:17.085Z,-11289.06
2023-06-08T03:46:25.433Z,-11280.03
2023-06-08T03:49:31.894Z,-11283.84
2023-06-08T03:52:39.340Z,-11286.78
2023-06-08T03:55:46.045Z,-11294.13
2023-06-08T03:58:52.966Z,-11287.91
2023-06-08T04:02:01.152Z,-11294.69
2023-06-08T04:05:08.756Z,-11294.13
2023-06-08T04:08:15.797Z,-11286.22
2023-06-08T04:11:22.306Z,-11293.13
2023-06-08T04:14:28.925Z,-11292.44
2023-06-08T04:17:36.558Z,-11290.19
2023-06-08T04:20:43.432Z,-11297.34
2023-06-08T04:23:50.240Z,-11309.88
2023-06-08T04:26:56.702Z,-11319.47
2023-06-08T04:30:03.677Z,-11331.28
2023-06-08T04:33:11.748Z,-11316.09
2023-06-08T04:36:18.824Z,-11326.38
2023-06-08T04:39:25.698Z,-11323.41
2023-06-08T04:42:33.694Z,-11343.53
2023-06-08T04:45:40.320Z,-11334.81
2023-06-08T04:48:49.846Z,-11350.44
2023-06-08T04:51:56.831Z,-11355.22
2023-06-08T04:55:03.421Z,-11373.28
2023-06-08T04:58:09.911Z,-11367.78
2023-06-08T05:01:16.076Z,-11365.38
2023-06-08T05:04:23.885Z,-11375.53
2023-06-08T05:07:30.302Z,-11358.19
2023-06-08T05:10:36.344Z,-11374.41
2023-06-08T05:13:42.482Z,-11368.47
2023-06-08T05:16:48.662Z,-11393.56
2023-06-08T05:19:56.415Z,-11391.44
2023-06-08T05:23:02.710Z,-11389.63
2023-06-08T05:26:09.168Z,-11409.91
2023-06-08T05:29:15.423Z,-11405.53
2023-06-08T05:32:22.904Z,-11409.63
2023-06-08T05:35:30.913Z,-11410.75
2023-06-08T05:38:37.400Z,-11420.34
2023-06-08T05:41:44.431Z,-11442.34
2023-06-08T05:44:51.945Z,-11439.22
2023-06-08T05:47:58.229Z,-11425.97
2023-06-08T05:51:05.914Z,-11429.38
2023-06-08T05:54:12.526Z,-11424.00
2023-06-08T05:57:18.896Z,-11458.41
2023-06-08T06:00:25.367Z,-11447.41
2023-06-08T06:03:31.849Z,-11450.94
2023-06-08T06:06:39.388Z,-11455.03
2023-06-08T06:09:46.129Z,-11471.66
2023-06-08T06:12:52.434Z,-11468.13
2023-06-08T06:15:58.663Z,-11495.91
2023-06-08T06:19:04.700Z,-11453.03
2023-06-08T06:22:12.891Z,-11457.56
2023-06-08T06:25:20.138Z,-11470.81
2023-06-08T06:28:26.544Z,-11473.34
2023-06-08T06:31:33.435Z,-11488.72
2023-06-08T06:34:40.069Z,-11480.53
2023-06-08T06:37:48.029Z,-11506.06
2023-06-08T06:40:54.764Z,-11500.44
2023-06-08T06:44:01.165Z,-11512.00
2023-06-08T06:47:08.469Z,-11505.94
2023-06-08T06:50:14.975Z,-11490.97
2023-06-08T06:53:22.642Z,-11504.38
2023-06-08T06:56:29.171Z,-11524.97
2023-06-08T06:59:35.621Z,-11500.84
2023-06-08T07:02:42.376Z,-11511.72
2023-06-08T07:05:48.831Z,-11500.00
2023-06-08T07:08:56.571Z,-11516.78
2023-06-08T07:12:15.302Z,-11547.56
2023-06-08T07:15:23.424Z,-11547.41
2023-06-08T07:18:29.628Z,-11544.88
2023-06-08T07:21:49.052Z,-11568.03
2023-06-08T07:25:33.962Z,-11574.94
2023-06-08T07:28:35.184Z,-11576.47
2023-06-08T07:31:41.364Z,-11571.13
2023-06-08T07:37:54.127Z,-11555.59
2023-06-08T07:41:01.875Z,-11582.00
2023-06-08T07:44:08.494Z,-11576.63
2023-06-08T07:47:15.518Z,-11587.78
2023-06-08T07:50:22.191Z,-11589.63
2023-06-08T07:53:36.978Z,-11601.19
2023-06-08T07:56:44.796Z,-11602.88
2023-06-08T07:59:51.231Z,-11620.66
2023-06-08T08:02:57.919Z,-11589.63
2023-06-08T08:06:04.670Z,-11647.78
2023-06-08T08:09:10.996Z,-11640.16
2023-06-08T08:12:18.855Z,-11618.41
2023-06-08T08:15:25.424Z,-11590.47
2023-06-08T08:18:31.810Z,-11588.34
2023-06-08T08:21:38.078Z,-11612.19
2023-06-08T08:24:44.636Z,-11616.84
2023-06-08T08:27:52.244Z,-11626.03
2023-06-08T08:31:00.533Z,-11629.16
2023-06-08T08:34:07.143Z,-11624.06
2023-06-08T08:37:14.380Z,-11650.03
2023-06-08T08:40:21.298Z,-11638.47
2023-06-08T08:43:34.090Z,-11665.28
2023-06-08T08:46:44.402Z,-11644.66
2023-06-08T08:49:58.933Z,-11630.00
2023-06-08T08:53:06.370Z,-11640.16
2023-06-08T08:56:13.355Z,-11645.53
2023-06-08T08:59:21.190Z,-11643.41
2023-06-08T09:02:28.476Z,-11665.28
2023-06-08T09:05:35.663Z,-11663.44
2023-06-08T09:08:42.192Z,-11678.13
2023-06-08T09:11:59.271Z,-11659.63
2023-06-08T09:15:09.262Z,-11676.31
2023-06-08T09:18:20.595Z,-11701.16
2023-06-08T09:21:28.875Z,-11651.88
2023-06-08T09:24:35.350Z,-11677.72
2023-06-08T09:27:42.203Z,-11687.31
2023-06-08T09:30:51.352Z,-11694.81
2023-06-08T09:34:07.707Z,-11692.97
2023-06-08T09:37:15.588Z,-11692.69
2023-06-08T09:40:25.733Z,-11695.22
2023-06-08T09:43:33.644Z,-11724.06
2023-06-08T09:46:42.689Z,-11741.72
2023-06-08T09:49:50.422Z,-11754.28
2023-06-08T09:52:57.398Z,-11730.81
2023-06-08T09:56:06.874Z,-11720.22
2023-06-08T09:59:17.657Z,-11760.78
2023-06-08T10:02:32.772Z,-11776.19
2023-06-08T10:05:43.269Z,-11702.03
2023-06-08T10:08:54.061Z,-11722.91
2023-06-08T10:12:02.250Z,-11726.16
2023-06-08T10:15:10.720Z,-11748.63
2023-06-08T10:18:19.381Z,-11711.34
2023-06-08T10:21:28.279Z,-11747.22
2023-06-08T10:24:36.163Z,-11721.50
2023-06-08T10:27:50.026Z,-11713.88
2023-06-08T10:30:56.627Z,-11733.09
2023-06-08T10:34:09.834Z,-11729.69
2023-06-08T10:37:30.092Z,-11728.44
2023-06-08T10:40:43.676Z,-11674.03
2023-06-08T10:44:00.927Z,-11685.91
2023-06-08T10:47:08.908Z,-11748.63
2023-06-08T10:50:21.346Z,-11757.81
2023-06-08T10:53:42.672Z,-11753.00
2023-06-08T10:57:08.687Z,-11735.06
2023-06-08T11:00:47.371Z,-11721.22
2023-06-08T11:03:53.924Z,-11715.16
2023-06-08T11:07:07.312Z,-11700.31
2023-06-08T11:10:13.445Z,-11747.22
2023-06-08T11:13:20.230Z,-11743.25
2023-06-08T11:19:40.148Z,-11735.06
2023-06-08T11:22:47.769Z,-11763.03
2023-06-08T11:25:54.271Z,-11770.09
2023-06-08T11:29:03.240Z,-11786.78
2023-06-08T11:32:12.498Z,-11730.81
2023-06-08T11:35:20.763Z,-11787.34
2023-06-08T11:38:28.818Z,-11778.03
2023-06-08T11:41:35.749Z,-11771.38
2023-06-08T11:44:42.623Z,-11752.03
2023-06-08T11:47:58.764Z,-11810.22
2023-06-08T11:51:12.925Z,-11793.28
2023-06-08T11:54:21.895Z,-11810.22
2023-06-08T11:57:41.492Z,-11827.91
2023-06-08T12:00:48.154Z,-11810.38
2023-06-08T12:03:54.277Z,-11822.81
2023-06-08T12:07:00.643Z,-11790.16
2023-06-08T12:10:10.057Z,-11756.13
2023-06-08T12:13:20.309Z,-11747.22
2023-06-08T12:16:26.720Z,-11802.19
2023-06-08T12:19:33.271Z,-11813.22
2023-06-08T12:22:39.851Z,-11797.94
2023-06-08T12:25:47.620Z,-11751.88
2023-06-08T12:28:54.859Z,-11765.44
2023-06-08T12:32:01.171Z,-11762.47
2023-06-08T12:35:08.020Z,-11726.16
2023-06-08T12:38:14.876Z,-11731.41
2023-06-08T12:41:24.036Z,-11715.56
2023-06-08T12:44:30.402Z,-11718.81
2023-06-08T12:47:36.730Z,-11707.66
2023-06-08T12:50:43.211Z,-11706.66
2023-06-08T12:53:49.420Z,-11699.03
2023-06-08T12:56:56.983Z,-11692.41
2023-06-08T13:00:04.045Z,-11688.72
2023-06-08T13:03:11.464Z,-11688.16
2023-06-08T13:06:18.102Z,-11727.88
2023-06-08T13:09:24.406Z,-11707.25
2023-06-08T13:12:32.523Z,-11747.63
2023-06-08T13:15:39.561Z,-11710.91
2023-06-08T13:18:46.117Z,-11757.97
2023-06-08T13:21:52.851Z,-11704.13
2023-06-08T13:24:59.245Z,-11688.72
2023-06-08T13:28:08.722Z,-11690.84
2023-06-08T13:31:15.225Z,-11676.16
2023-06-08T13:34:21.595Z,-11669.25
2023-06-08T13:37:28.382Z,-11670.25
2023-06-08T13:40:36.380Z,-11654.41
2023-06-08T13:43:45.514Z,-11645.66
2023-06-08T13:46:52.170Z,-11657.25
2023-06-08T13:50:00.797Z,-11644.94
2023-06-08T13:53:07.042Z,-11644.53
2023-06-08T13:56:13.392Z,-11638.47
2023-06-08T13:59:21.516Z,-11629.44
2023-06-08T14:02:27.800Z,-11630.97
2023-06-08T14:05:34.698Z,-11619.97
2023-06-08T14:08:40.919Z,-11599.63
2023-06-08T14:11:47.448Z,-11596.38
2023-06-08T14:14:55.272Z,-11584.25
2023-06-08T14:18:02.009Z,-11576.63
2023-06-08T14:21:09.175Z,-11572.41
2023-06-08T14:24:15.696Z,-11579.88
2023-06-08T14:27:22.179Z,-11582.41
2023-06-08T14:30:29.722Z,-11572.69
2023-06-08T14:33:36.187Z,-11567.88
2023-06-08T14:36:42.508Z,-11564.22
2023-06-08T14:39:48.754Z,-11560.25
2023-06-08T14:42:55.050Z,-11562.78
2023-06-08T14:46:02.681Z,-11557.56
2023-06-08T14:49:09.373Z,-11559.25
2023-06-08T14:52:15.730Z,-11559.41
2023-06-08T14:55:22.406Z,-11561.09
2023-06-08T14:58:28.605Z,-11559.69
2023-06-08T15:01:38.038Z,-11566.19
2023-06-08T15:04:44.326Z,-11564.06
2023-06-08T15:07:50.430Z,-11562.22
2023-06-08T15:10:56.627Z,-11534.00
2023-06-08T15:14:02.980Z,-11547.00
2023-06-08T15:17:11.331Z,-11539.22
2023-06-08T15:20:17.910Z,-11550.09
2023-06-08T15:23:24.060Z,-11553.47
2023-06-08T15:26:30.620Z,-11550.53
2023-06-08T15:29:37.274Z,-11550.94
2023-06-08T15:32:44.991Z,-11553.75
2023-06-08T15:35:51.407Z,-11551.78
2023-06-08T15:38:57.644Z,-11543.31
2023-06-08T15:42:03.940Z,-11551.22
2023-06-08T15:45:11.470Z,-11560.53
2023-06-08T15:48:19.298Z,-11563.06
2023-06-08T15:51:30.332Z,-11551.78
2023-06-08T15:54:37.166Z,-11543.03
2023-06-08T15:57:43.339Z,-11545.31
2023-06-08T16:00:49.543Z,-11549.81
2023-06-08T16:03:57.201Z,-11558.84
2023-06-08T16:07:03.709Z,-11551.78
2023-06-08T16:10:10.726Z,-11545.88
2023-06-08T16:13:17.886Z,-11535.13
2023-06-08T16:16:25.041Z,-11535.69
2023-06-08T16:19:32.921Z,-11526.13
2023-06-08T16:22:40.593Z,-11533.03
2023-06-08T16:25:46.880Z,-11511.44
2023-06-08T16:28:53.071Z,-11524.13
2023-06-08T16:31:59.384Z,-11522.44
2023-06-08T16:35:07.883Z,-11528.38
2023-06-08T16:38:14.374Z,-11517.63
2023-06-08T16:41:21.648Z,-11514.53
2023-06-08T16:44:28.237Z,-11520.47
2023-06-08T16:47:35.145Z,-11519.75
2023-06-08T16:50:42.858Z,-11501.28
2023-06-08T16:53:49.374Z,-11504.38
2023-06-08T16:56:55.652Z,-11508.63
2023-06-08T17:00:05.279Z,-11508.34
2023-06-08T17:03:11.816Z,-11496.19
2023-06-08T17:06:19.636Z,-11506.22
2023-06-08T17:09:26.693Z,-11503.81
2023-06-08T17:12:33.079Z,-11492.81
2023-06-08T17:15:39.343Z,-11497.03
2023-06-08T17:18:45.792Z,-11497.47
2023-06-08T17:21:53.575Z,-11491.41
2023-06-08T17:25:00.880Z,-11502.56
2023-06-08T17:28:07.818Z,-11497.19
2023-06-08T17:31:14.705Z,-11494.78
2023-06-08T17:34:21.282Z,-11493.09
2023-06-08T17:37:29.185Z,-11488.03
2023-06-08T17:40:35.624Z,-11490.13
2023-06-08T17:43:49.348Z,-11493.66
2023-06-08T17:46:55.835Z,-11488.31
2023-06-08T17:50:02.897Z,-11488.88
2023-06-08T17:53:12.639Z,-11481.53
2023-06-08T17:56:21.525Z,-11484.91
2023-06-08T17:59:27.967Z,-11480.13
2023-06-08T18:02:34.372Z,-11485.34
2023-06-08T18:05:41.490Z,-11489.16
2023-06-08T18:08:50.182Z,-11479.28
2023-06-08T18:11:56.301Z,-11481.25
2023-06-08T18:15:02.422Z,-11474.19
2023-06-08T18:18:08.915Z,-11468.84
2023-06-08T18:21:15.288Z,-11463.34
2023-06-08T18:24:23.326Z,-11463.47
2023-06-08T18:27:29.926Z,-11453.63
2023-06-08T18:30:36.070Z,-11444.88
2023-06-08T18:33:42.282Z,-11446.28
2023-06-08T18:36:48.682Z,-11445.16
2023-06-08T18:39:59.182Z,-11456.28
2023-06-08T18:43:05.834Z,-11451.63
2023-06-08T18:46:12.179Z,-11451.22
2023-06-08T18:49:21.089Z,-11446.69
2023-06-08T18:52:27.786Z,-11444.59
2023-06-08T18:55:35.403Z,-11435.56
2023-06-08T18:58:41.891Z,-11428.25
2023-06-08T19:01:48.204Z,-11420.91
2023-06-08T19:04:54.521Z,-11431.91
2023-06-08T19:08:00.880Z,-11420.06
2023-06-08T19:11:08.472Z,-11417.22
2023-06-08T19:14:14.873Z,-11421.31
2023-06-08T19:17:21.328Z,-11421.75
2023-06-08T19:20:29.509Z,-11413.00
2023-06-08T19:23:36.151Z,-11422.88
2023-06-08T19:26:43.854Z,-11418.09
2023-06-08T19:29:50.528Z,-11415.41
2023-06-08T19:32:57.134Z,-11408.34
2023-06-08T19:36:03.935Z,-11405.81
2023-06-08T19:39:10.639Z,-11417.22
2023-06-08T19:42:18.428Z,-11416.09
2023-06-08T19:45:24.745Z,-11412.59
2023-06-08T19:48:31.261Z,-11411.88
2023-06-08T19:51:37.643Z,-11405.97
2023-06-08T19:54:44.102Z,-11400.31
2023-06-08T19:57:52.057Z,-11403.44
2023-06-08T20:00:58.712Z,-11411.31
2023-06-08T20:04:05.257Z,-11405.13
2023-06-08T20:07:14.313Z,-11404.84
2023-06-08T20:10:20.662Z,-11403.28
2023-06-08T20:13:28.270Z,-11400.59
2023-06-08T20:16:34.871Z,-11402.00
2023-06-08T20:19:41.169Z,-11395.81
2023-06-08T20:22:47.223Z,-11392.16
2023-06-08T20:25:53.445Z,-11376.66
2023-06-08T20:29:01.775Z,-11389.03
2023-06-08T20:32:10.040Z,-11397.38
2023-06-08T20:35:16.860Z,-11391.59
2023-06-08T20:38:22.890Z,-11386.09
2023-06-08T20:41:29.060Z,-11383.69
2023-06-08T20:44:37.365Z,-11380.03
2023-06-08T20:47:43.575Z,-11382.28
2023-06-08T20:50:49.805Z,-11361.56
2023-06-08T20:53:56.309Z,-11360.03
2023-06-08T20:57:02.703Z,-11356.66
2023-06-08T21:00:12.391Z,-11363.81
2023-06-08T21:03:18.630Z,-11367.34
2023-06-08T21:06:25.534Z,-11373.28
2023-06-08T21:09:32.169Z,-11368.75
2023-06-08T21:12:38.690Z,-11369.88
2023-06-08T21:15:46.658Z,-11373.84
2023-06-08T21:18:53.184Z,-11371.28
2023-06-08T21:21:59.577Z,-11371.28
2023-06-08T21:25:06.792Z,-11372.44
2023-06-08T21:28:13.963Z,-11350.72
2023-06-08T21:31:21.825Z,-11353.25
2023-06-08T21:34:28.488Z,-11342.84
2023-06-08T21:37:34.742Z,-11345.38
2023-06-08T21:40:41.011Z,-11342.84
2023-06-08T21:43:47.122Z,-11339.19
2023-06-08T21:46:54.716Z,-11339.19
2023-06-08T21:50:01.189Z,-11352.97
2023-06-08T21:53:10.886Z,-11342.00
2023-06-08T21:56:17.075Z,-11342.84
2023-06-08T21:59:23.577Z,-11341.84
2023-06-08T22:02:31.497Z,-11341.72
2023-06-08T22:05:38.164Z,-11340.31
2023-06-08T22:08:44.858Z,-11342.84
2023-06-08T22:11:51.943Z,-11336.94
2023-06-08T22:14:59.890Z,-11339.03
2023-06-08T22:18:08.177Z,-11340.88
2023-06-08T22:21:14.671Z,-11343.81
2023-06-08T22:24:21.305Z,-11340.88
2023-06-08T22:27:27.552Z,-11343.69
2023-06-08T22:30:35.921Z,-11339.75
2023-06-08T22:33:45.959Z,-11337.91
2023-06-08T22:36:52.546Z,-11338.34
2023-06-08T22:39:58.712Z,-11336.66
2023-06-08T22:43:05.828Z,-11332.41
2023-06-08T22:49:20.217Z,-11333.56
2023-06-08T22:52:29.787Z,-11330.44
2023-06-08T22:55:35.948Z,-11329.47
2023-06-08T22:58:42.121Z,-11325.66
2023-06-08T23:01:48.493Z,-11329.19
2023-06-08T23:04:56.382Z,-11326.50
2023-06-08T23:08:03.206Z,-11324.09
2023-06-08T23:11:09.532Z,-11322.00
2023-06-08T23:14:17.592Z,-11326.38
2023-06-08T23:17:26.542Z,-11321.44
2023-06-08T23:20:34.268Z,-11324.81
2023-06-08T23:23:41.086Z,-11322.56
2023-06-08T23:26:47.383Z,-11316.78
2023-06-08T23:29:53.590Z,-11314.41
2023-06-08T23:33:00.051Z,-11310.72
2023-06-08T23:36:08.349Z,-11282.00
2023-06-08T23:39:14.964Z,-11291.03
2023-06-08T23:42:21.823Z,-11293.28
2023-06-08T23:45:28.605Z,-11285.53
2023-06-08T23:48:35.066Z,-11276.81
2023-06-08T23:51:42.919Z,-11274.69
2023-06-08T23:54:49.441Z,-11287.91
2023-06-08T23:57:56.053Z,-11301.72
